Last 7 Days

Morrison Lane

Hourly Data | America/Los_Angeles
as of 4/23/24 9:06 PM PDT
Date & Time Temp (°F) RH (%) Dew Pt (°F) Wind Spd (mph) Wind Dir (°) Wind Gust (mph) Wind Gst Dir (°) Latest Rain (In) Daily Rain (In) Daily Min Temp (°F) Daily Max Temp (°F)
4/23/24 - 2100 56.5 64 44.7 5.1 SW | 232 11.2 WSW | 252 0.00 0.00 52.6 64.3
4/23/24 - 2000 57.5 62 44.8 7.3 SW | 234 15.0 SSW | 212 0.00 0.00 52.6 64.3
4/23/24 - 1900 58.5 60 44.8 9.2 SW | 236 16.9 WSW | 250 0.00 0.00 52.6 64.3
4/23/24 - 1800 59.6 60 45.6 11.2 WSW | 237 19.4 WSW | 249 0.00 0.00 52.6 64.3
4/23/24 - 1700 61.6 57 46.4 11.1 SW | 230 21.4 W | 262 0.00 0.00 52.6 64.3
4/23/24 - 1600 63.0 54 46.3 11.7 SW | 226 19.4 SSW | 208 0.00 0.00 52.6 64.3
4/23/24 - 1500 63.1 55 46.6 11.6 SW | 232 20.2 WSW | 244 0.00 0.00 52.6 64.3
4/23/24 - 1400 63.4 55 47.0 10.6 SW | 227 20.3 SSW | 211 0.00 0.00 52.6 64.3
4/23/24 - 1300 62.1 54 45.5 11.1 SW | 223 20.8 SW | 223 0.00 0.00 52.6 63.5
4/23/24 - 1200 61.0 58 46.3 9.8 SW | 219 18.8 SSW | 195 0.00 0.00 52.6 63.0
4/23/24 - 1100 58.7 63 46.1 9.3 SW | 230 17.8 WSW | 249 0.00 0.00 52.6 60.9
4/23/24 - 1000 57.7 65 46.2 8.5 SW | 230 15.6 SSW | 204 0.00 0.00 52.6 59.0
4/23/24 - 0900 55.9 71 46.7 7.5 SW | 232 17.6 SSW | 205 0.00 0.00 52.6 57.5
4/23/24 - 0800 55.0 73 46.4 6.3 WSW | 237 14.2 WSW | 241 0.00 0.00 52.6 55.2
4/23/24 - 0700 54.3 73 46.0 6.1 WSW | 252 14.2 W | 277 0.00 0.00 52.6 54.7
4/23/24 - 0600 53.9 75 46.2 7.0 W | 270 15.0 WNW | 291 0.00 0.00 52.6 54.2
4/23/24 - 0500 53.4 77 46.4 7.4 WNW | 285 13.7 NW | 304 0.00 0.00 52.6 53.6
4/23/24 - 0400 53.2 77 46.3 7.6 WNW | 284 14.8 W | 273 0.00 0.00 52.6 53.5
4/23/24 - 0300 53.0 77 46.0 6.3 WNW | 294 13.6 WSW | 248 0.00 0.00 52.6 53.4
4/23/24 - 0200 53.0 76 45.8 7.2 WNW | 283 16.2 W | 269 0.00 0.00 52.6 53.4
4/23/24 - 0100 53.3 76 45.8 6.5 W | 276 15.0 W | 272 0.00 0.00 50.3 79.7
4/23/24 - 0000 54.0 74 46.0 6.5 WSW | 253 13.0 W | 264 0.00 0.00 50.3 79.7
4/22/24 - 2300 54.5 75 46.8 7.0 SW | 230 15.3 WSW | 256 0.00 0.00 50.3 79.7
4/22/24 - 2200 55.5 77 48.4 4.8 WSW | 246 17.5 SSW | 198 0.00 0.00 50.3 79.7
4/22/24 - 2100 56.2 76 48.8 11.4 SW | 218 25.6 SSW | 212 0.00 0.00 50.3 79.7
4/22/24 - 2000 57.6 73 49.1 13.4 SW | 231 24.1 SW | 217 0.00 0.00 50.3 79.7
4/22/24 - 1900 60.6 66 49.1 17.8 SW | 223 28.2 SW | 218 0.00 0.00 50.3 79.7
4/22/24 - 1800 67.0 57 51.4 14.2 SW | 230 26.7 SW | 230 0.00 0.00 50.3 79.7
4/22/24 - 1700 70.6 54 53.3 12.0 SW | 229 19.9 WSW | 242 0.00 0.00 50.3 79.7
4/22/24 - 1600 74.2 51 54.9 12.0 SW | 221 20.1 SSW | 208 0.00 0.00 50.3 79.7
4/22/24 - 1500 78.3 48 57.0 8.7 SW | 216 14.1 SW | 219 0.00 0.00 50.3 79.7
4/22/24 - 1400 79.0 48 57.4 6.5 SW | 216 11.5 SSW | 212 0.00 0.00 50.3 79.7
4/22/24 - 1300 78.8 44 54.8 3.9 S | 176 9.8 SSW | 210 0.00 0.00 50.3 79.7
4/22/24 - 1200 76.2 46 54.1 3.6 SE | 145 7.5 ESE | 104 0.00 0.00 50.3 77.9
4/22/24 - 1100 73.8 52 55.0 4.5 SE | 142 8.8 SE | 132 0.00 0.00 50.3 74.9
4/22/24 - 1000 71.3 60 56.8 2.4 ESE | 119 7.5 ESE | 112 0.00 0.00 50.3 72.7
4/22/24 - 0900 67.9 66 56.3 0.5 ESE | 106 2.8 SE | 130 0.00 0.00 50.3 69.3
4/22/24 - 0800 58.0 87 54.0 0.6 NW | 311 2.2 W | 276 0.00 0.00 50.3 64.4
4/22/24 - 0700 51.1 95 49.8 1.3 NW | 323 3.2 NW | 318 0.00 0.00 50.3 55.8
4/22/24 - 0600 51.7 94 49.9 0.7 WSW | 249 2.2 WNW | 284 0.00 0.00 50.4 55.8
4/22/24 - 0500 52.7 94 51.0 2.6 W | 269 5.4 NW | 312 0.00 0.00 51.2 55.8
4/22/24 - 0400 53.1 93 51.3 1.8 W | 276 3.5 WNW | 285 0.00 0.00 51.3 55.8
4/22/24 - 0300 53.1 94 51.4 2.2 WNW | 299 3.6 WNW | 298 0.00 0.00 52.6 55.8
4/22/24 - 0200 54.2 92 51.9 1.6 WNW | 287 2.8 WNW | 294 0.00 0.00 52.9 55.8
4/22/24 - 0100 55.8 91 53.1 2.5 WNW | 301 4.0 WNW | 291 0.00 0.00 46.4 82.0
4/22/24 - 0000 57.0 88 53.5 2.2 WNW | 297 3.4 NW | 310 0.00 0.00 46.4 82.0
4/21/24 - 2300 60.0 83 54.6 2.6 WNW | 294 3.9 WSW | 253 0.00 0.00 46.4 82.0
4/21/24 - 2200 63.1 76 55.5 2.2 WNW | 298 3.8 WNW | 290 0.00 0.00 46.4 82.0
4/21/24 - 2100 69.4 57 53.7 3.3 NW | 322 6.8 NW | 322 0.00 0.00 46.4 82.0
4/21/24 - 2000 74.5 46 52.4 4.6 WSW | 248 8.9 SW | 228 0.00 0.00 46.4 82.0
4/21/24 - 1900 79.4 39 52.2 5.1 SW | 223 9.2 SW | 220 0.00 0.00 46.4 82.0
4/21/24 - 1800 80.9 39 53.9 4.6 S | 179 8.4 S | 169 0.00 0.00 46.4 82.0
4/21/24 - 1700 81.5 42 56.3 4.9 SW | 214 9.0 SSW | 213 0.00 0.00 46.4 82.0
4/21/24 - 1600 81.1 42 55.7 4.1 SSE | 156 8.1 SSE | 164 0.00 0.00 46.4 81.7
4/21/24 - 1500 80.4 40 53.9 3.4 SE | 139 8.3 SE | 131 0.00 0.00 46.4 81.5
4/21/24 - 1400 78.4 42 53.5 2.6 SSE | 149 7.8 S | 179 0.00 0.00 46.4 79.9
4/21/24 - 1300 76.3 44 52.7 3.1 SE | 145 7.8 ESE | 108 0.00 0.00 46.4 78.0
4/21/24 - 1200 73.8 46 51.8 3.1 SE | 138 7.6 SE | 135 0.00 0.00 46.4 75.4
4/21/24 - 1100 69.6 52 51.2 4.1 SE | 125 7.9 E | 90 0.00 0.00 46.4 72.0
4/21/24 - 1000 66.7 58 51.4 4.0 ESE | 110 8.4 ESE | 105 0.00 0.00 46.4 67.7
4/21/24 - 0900 62.8 56 46.8 1.7 NE | 54 4.6 E | 101 0.00 0.00 46.4 65.8
4/21/24 - 0800 54.9 67 43.7 1.0 NNE | 14 3.1 N | 8 0.00 0.00 46.4 60.7
4/21/24 - 0700 46.9 83 42.1 1.2 N | 352 3.3 NW | 317 0.00 0.00 46.4 60.7
4/21/24 - 0600 49.5 73 41.3 0.8 NNW | 331 2.5 W | 274 0.00 0.00 48.0 60.7
4/21/24 - 0500 54.7 60 41.2 1.8 W | 277 7.1 W | 270 0.00 0.00 51.4 60.7
4/21/24 - 0400 55.9 57 41.0 2.6 WSW | 256 7.4 W | 269 0.00 0.00 53.8 60.7
4/21/24 - 0300 57.3 58 42.6 5.6 WSW | 253 11.5 WSW | 250 0.00 0.00 56.6 60.7
4/21/24 - 0200 57.9 54 41.3 5.5 W | 269 11.3 WSW | 249 0.00 0.00 56.6 60.7
4/21/24 - 0100 61.4 39 36.1 6.7 WSW | 254 14.1 WSW | 257 0.00 0.00 48.8 75.6
4/21/24 - 0000 62.0 39 36.6 4.7 W | 266 8.8 WSW | 242 0.00 0.00 48.8 75.6
4/20/24 - 2300 58.4 55 42.3 3.3 SW | 226 9.6 WSW | 239 0.00 0.00 48.8 75.6
4/20/24 - 2200 59.5 53 42.2 2.5 W | 274 8.5 WSW | 246 0.00 0.00 48.8 75.6
4/20/24 - 2100 62.0 45 40.6 2.8 SSE | 154 10.6 SSW | 207 0.00 0.00 48.8 75.6
4/20/24 - 2000 65.2 34 36.0 3.7 S | 189 10.9 SW | 221 0.00 0.00 48.8 75.6
4/20/24 - 1900 69.6 34 40.0 7.8 SW | 220 15.1 SW | 215 0.00 0.00 48.8 75.6
4/20/24 - 1800 73.0 34 42.9 8.7 SW | 221 16.4 SW | 228 0.00 0.00 48.8 75.6
4/20/24 - 1700 74.2 36 45.9 9.2 SW | 223 18.1 SSW | 204 0.00 0.00 48.8 75.6
4/20/24 - 1600 74.9 45 51.9 9.4 SW | 236 17.4 WSW | 242 0.00 0.00 48.8 75.6
4/20/24 - 1500 73.7 47 52.1 11.5 WSW | 248 19.0 WSW | 251 0.00 0.00 48.8 74.6
4/20/24 - 1400 70.8 51 51.6 13.2 WSW | 257 22.2 WSW | 245 0.00 0.00 48.8 73.0
4/20/24 - 1300 68.9 52 50.8 12.4 W | 261 24.2 W | 263 0.00 0.00 48.8 69.8
4/20/24 - 1200 67.3 53 49.7 8.0 SW | 234 16.7 WSW | 239 0.00 0.00 48.8 69.0
4/20/24 - 1100 63.2 60 49.0 7.0 SW | 234 13.8 W | 259 0.00 0.00 48.8 66.4
4/20/24 - 1000 59.8 65 48.0 7.2 WSW | 244 14.6 SW | 216 0.00 0.00 48.8 61.6
4/20/24 - 0900 55.4 75 47.6 6.5 WSW | 249 11.8 WSW | 242 0.00 0.00 48.8 57.8
4/20/24 - 0800 51.6 83 46.6 6.0 WSW | 241 13.7 WSW | 251 0.00 0.00 48.8 57.1
4/20/24 - 0700 49.6 89 46.5 3.7 WSW | 246 13.5 SW | 225 0.00 0.00 48.8 57.1
4/20/24 - 0600 50.4 88 46.9 4.4 WSW | 253 18.8 SW | 227 0.00 0.00 49.5 57.1
4/20/24 - 0500 51.9 82 46.7 4.1 SSW | 204 13.7 SW | 221 0.00 0.00 51.0 57.1
4/20/24 - 0400 53.4 79 47.1 2.5 WNW | 290 8.2 SW | 226 0.00 0.00 51.8 57.1
4/20/24 - 0300 55.4 75 47.6 5.3 WSW | 249 11.6 SW | 222 0.00 0.00 53.8 57.1
4/20/24 - 0200 56.6 72 47.9 6.7 WSW | 240 13.8 SW | 235 0.00 0.00 56.3 57.1
4/20/24 - 0100 57.5 69 47.4 7.0 SW | 232 17.7 SW | 236 0.00 0.00 52.3 73.0
4/20/24 - 0000 58.8 65 46.9 9.3 SW | 235 16.3 WSW | 258 0.00 0.00 52.3 73.0
4/19/24 - 2300 59.4 64 47.1 5.7 SW | 227 13.4 WSW | 239 0.00 0.00 52.3 73.0
4/19/24 - 2200 59.5 60 45.7 4.8 SW | 220 12.8 W | 262 0.00 0.00 52.3 73.0
4/19/24 - 2100 61.1 58 46.1 7.5 WSW | 256 16.0 WSW | 238 0.00 0.00 52.3 73.0
4/19/24 - 2000 62.9 58 48.0 6.2 WSW | 237 14.8 W | 269 0.00 0.00 52.3 73.0
4/19/24 - 1900 67.1 59 52.1 6.8 WSW | 254 17.4 SW | 218 0.00 0.00 52.3 73.0
4/19/24 - 1800 68.9 60 54.6 9.4 WSW | 246 16.4 SSW | 195 0.00 0.00 52.3 73.0
4/19/24 - 1700 70.8 59 55.7 11.0 WSW | 250 20.1 WSW | 243 0.00 0.00 52.3 73.0
4/19/24 - 1600 71.8 56 55.2 10.0 WSW | 243 20.0 SW | 224 0.00 0.00 52.3 73.0
4/19/24 - 1500 70.7 57 54.6 10.4 WSW | 245 17.2 WSW | 251 0.00 0.00 52.3 71.9
4/19/24 - 1400 67.5 61 53.5 12.9 WSW | 252 20.4 SW | 235 0.00 0.00 52.3 69.1
4/19/24 - 1300 66.2 63 53.3 8.4 WSW | 244 17.3 WSW | 251 0.00 0.00 52.3 68.9
4/19/24 - 1200 64.2 66 52.5 8.7 WSW | 240 17.8 W | 270 0.00 0.00 52.3 65.3
4/19/24 - 1100 61.5 70 51.4 8.7 WSW | 245 16.2 W | 273 0.00 0.00 52.3 63.9
4/19/24 - 1000 58.6 74 50.4 9.3 WSW | 244 16.5 WSW | 238 0.00 0.00 52.3 59.9
4/19/24 - 0900 57.3 74 49.2 8.9 WSW | 240 14.9 WSW | 240 0.00 0.00 52.3 59.0
4/19/24 - 0800 54.5 79 48.3 7.1 WSW | 256 12.8 SW | 232 0.00 0.00 52.3 59.0
4/19/24 - 0700 53.2 80 47.3 4.4 W | 262 13.2 WSW | 239 0.00 0.00 52.3 59.0
4/19/24 - 0600 53.2 80 47.2 5.0 WSW | 240 11.3 SW | 236 0.00 0.00 52.3 59.0
4/19/24 - 0500 52.9 83 47.9 4.9 WSW | 241 12.8 WSW | 252 0.00 0.00 52.3 59.0
4/19/24 - 0400 53.5 83 48.6 5.7 SW | 230 12.1 SW | 225 0.00 0.00 52.7 59.0
4/19/24 - 0300 55.4 78 48.8 5.1 WSW | 248 12.6 WSW | 248 0.00 0.00 54.6 59.0
4/19/24 - 0200 57.7 72 48.8 6.5 WSW | 247 13.2 WSW | 252 0.00 0.00 55.6 59.0
4/19/24 - 0100 58.6 70 48.7 6.5 SW | 232 12.4 WSW | 240 0.00 0.00 47.5 78.7
4/19/24 - 0000 58.8 69 48.8 5.1 SW | 233 10.4 SW | 233 0.00 0.00 47.5 78.7
4/18/24 - 2300 61.1 65 49.2 5.1 SW | 236 11.4 WSW | 251 0.00 0.00 47.5 78.7
4/18/24 - 2200 61.7 64 49.5 7.4 WSW | 241 14.1 WSW | 238 0.00 0.00 47.5 78.7
4/18/24 - 2100 64.9 58 50.0 4.4 SW | 232 8.8 SW | 233 0.00 0.00 47.5 78.7
4/18/24 - 2000 66.7 60 52.2 6.0 W | 278 14.2 W | 262 0.00 0.00 47.5 78.7
4/18/24 - 1900 70.6 50 51.1 6.8 SW | 236 12.6 SW | 227 0.00 0.00 47.5 78.7
4/18/24 - 1800 74.2 43 50.6 8.0 SSW | 209 13.0 S | 189 0.00 0.00 47.5 78.7
4/18/24 - 1700 75.6 43 51.2 8.9 SSW | 205 14.5 SSW | 193 0.00 0.00 47.5 78.7
4/18/24 - 1600 76.7 43 52.7 7.6 SW | 226 14.4 SW | 215 0.00 0.00 47.5 78.7
4/18/24 - 1500 77.4 36 48.1 4.2 S | 187 10.0 WSW | 238 0.00 0.00 47.5 78.4
4/18/24 - 1400 76.9 33 45.7 2.9 SE | 139 7.1 SE | 132 0.00 0.00 47.5 77.8
4/18/24 - 1300 75.1 37 47.3 2.7 SSE | 150 7.1 ESE | 119 0.00 0.00 47.5 76.8
4/18/24 - 1200 72.6 43 48.9 2.3 SSE | 163 7.1 SE | 132 0.00 0.00 47.5 74.8
4/18/24 - 1100 69.2 53 51.1 3.0 SE | 142 8.1 SE | 134 0.00 0.00 47.5 70.9
4/18/24 - 1000 66.1 62 52.4 2.5 SE | 137 6.0 E | 101 0.00 0.00 47.5 69.1
4/18/24 - 0900 62.7 73 53.8 0.7 E | 87 3.9 ESE | 109 0.00 0.00 47.5 64.3
4/18/24 - 0800 53.4 93 51.4 0.7 NW | 312 2.8 WNW | 301 0.00 0.00 47.5 58.6
4/18/24 - 0700 48.7 96 47.8 1.9 NW | 316 3.9 N | 4 0.00 0.00 47.5 54.6
4/18/24 - 0600 48.6 96 47.5 2.0 NW | 312 4.0 NW | 310 0.00 0.00 47.5 54.6
4/18/24 - 0500 50.2 95 48.9 1.5 WNW | 288 3.6 WNW | 287 0.00 0.00 49.3 54.6
4/18/24 - 0400 51.3 94 49.6 2.4 WNW | 289 3.9 WNW | 297 0.00 0.00 50.4 54.6
4/18/24 - 0300 52.9 92 50.7 3.0 NW | 309 4.6 NW | 316 0.00 0.00 52.1 54.6
4/18/24 - 0200 54.0 90 51.3 3.2 NW | 306 5.7 NW | 309 0.00 0.00 53.4 54.6
4/18/24 - 0100 54.5 91 51.8 3.3 NW | 311 5.1 NW | 325 0.00 0.00 47.0 77.7
4/18/24 - 0000 55.3 90 52.3 3.7 NW | 309 4.7 NW | 308 0.00 0.00 47.0 77.7
4/17/24 - 2300 56.7 87 52.9 3.4 NW | 309 5.3 WNW | 295 0.00 0.00 47.0 77.7
4/17/24 - 2200 59.9 79 53.4 3.7 NW | 314 7.1 N | 352 0.00 0.00 47.0 77.7
4/17/24 - 2100 61.7 75 53.8 3.8 NW | 315 7.5 NNW | 345 0.00 0.00 47.0 77.7
4/17/24 - 2000 66.4 69 55.6 1.8 WNW | 283 3.9 WNW | 282 0.00 0.00 47.0 77.7
4/17/24 - 1900 76.3 41 51.1 2.2 S | 188 4.8 SSE | 161 0.00 0.00 47.0 77.7
4/17/24 - 1800 76.6 38 49.4 2.2 SSE | 165 5.7 ESE | 122 0.00 0.00 47.0 77.6
4/17/24 - 1700 76.4 38 49.3 3.0 S | 175 9.2 E | 81 0.00 0.00 47.0 77.6
4/17/24 - 1600 76.1 37 47.6 2.3 NE | 54 6.1 ESE | 117 0.00 0.00 47.0 76.8
4/17/24 - 1500 75.2 40 49.0 3.1 E | 80 8.0 E | 89 0.00 0.00 47.0 76.7
4/17/24 - 1400 73.4 47 52.2 5.1 ENE | 75 10.3 ENE | 66 0.00 0.00 47.0 74.3
4/17/24 - 1300 71.4 54 54.1 5.2 ENE | 73 9.3 ENE | 57 0.00 0.00 47.0 72.3
4/17/24 - 1200 70.4 55 53.6 3.3 NE | 41 7.9 ENE | 69 0.00 0.00 47.0 71.2
4/17/24 - 1100 68.2 61 54.2 2.1 SE | 129 6.7 ESE | 117 0.00 0.00 47.0 70.0
4/17/24 - 1000 63.7 69 53.3 1.8 ESE | 118 4.4 SSE | 149 0.00 0.00 47.0 66.7
4/17/24 - 0900 59.4 79 52.8 1.0 NNE | 14 3.1 NNE | 21 0.00 0.00 47.0 62.4
4/17/24 - 0800 51.2 96 50.2 1.6 WNW | 302 3.3 NNW | 342 0.00 0.00 47.0 55.7
4/17/24 - 0700 47.8 96 46.8 1.5 NW | 316 2.7 W | 274 0.00 0.00 47.0 51.9
4/17/24 - 0600 48.6 96 47.4 1.5 WNW | 297 3.1 WNW | 299 0.00 0.00 47.7 51.9
4/17/24 - 0500 49.1 95 47.7 1.3 NW | 314 3.0 NNW | 342 0.00 0.00 48.5 51.9
4/17/24 - 0400 49.7 95 48.4 1.3 WNW | 302 3.2 WNW | 296 0.00 0.00 49.1 51.9
4/17/24 - 0300 49.8 94 48.2 1.3 WNW | 292 3.3 W | 276 0.00 0.00 49.4 51.9
4/17/24 - 0200 51.4 93 49.4 1.3 WNW | 290 3.3 NW | 319 0.00 0.00 50.5 51.9
4/17/24 - 0100 54.2 88 50.6 1.4 WNW | 299 4.2 NW | 325 0.00 0.00 42.9 75.0
4/17/24 - 0000 54.7 87 51.0 2.1 WNW | 284 5.0 WNW | 299 0.00 0.00 42.9 75.0
4/16/24 - 2300 55.8 84 51.0 1.5 NW | 326 3.6 NNW | 333 0.00 0.00 42.9 75.0
4/16/24 - 2200 58.4 77 51.0 2.2 NW | 320 4.6 NW | 313 0.00 0.00 42.9 75.0
Max 81.5 96 57.4 17.8 - 28.2 - 0.00 0.00 56.6 82.0
Avg 62.1 66 49.3 5.4 - 11.1 - 0.00 - - -
Min 46.9 33 36.0 0.5 - 2.2 - 0.00 0.00 42.9 51.9
Total - - - - - - - 0.00 - - -
Tip: Bookmark this page for easy future reference